To NAV CANADA Home Page Login to a new session Search on AWWS site Disclaimer Vers la page française équivalente Tips FAQ What's new on the site To the Forecasts and Observations / NOTAM section To "File a Flight Plan" website Publications and other links Update of the User's profile FIC Telephone Numbers My Weather Data Folder Route Weather Data Regional Weather Data Local Weather Data To the Forecasts and Observations / NOTAM section
Request Generated 10/19/2018 at 16:00:46 UTC . Weather information available at that time is displayed.

METAR/TAF

DRYDEN REGIONAL/ON    (show WxCam)

METAR CYHD 191500Z AUTO 30009G16KT 280V360 9SM BKN100 OVC120 07/00 A2958 RMK SLP031=
METAR CYHD 191400Z AUTO 29008KT 270V330 9SM OVC095 06/01 A2956 RMK SLP024=
METAR CYHD 191300Z AUTO 28011KT 9SM OVC140 06/03 A2954 RMK SLP016=

TAF CYHD 191345Z 1914/2002 30010KT P6SM BKN120
BECMG 1914/1916 31015G25KT
FM191800 31015G25KT P6SM BKN030 TEMPO 1918/1922 P6SM -SHRA BKN025
BECMG 1922/1924 30012KT
RMK FCST BASED ON AUTO OBS. NXT FCST BY 192000Z=
Your time UTC time
Weather data provided by Environment Canada and NAV CANADA